sensor_id;sensor_type;location;lat;lon;timestamp;P1;durP1;ratioP1;P2;durP2;ratioP2
11058;SDS011;5582;59.272;15.220;2022-07-19T00:01:34;11.33;;;6.20;;
11058;SDS011;5582;59.272;15.220;2022-07-19T00:04:00;11.33;;;5.67;;
11058;SDS011;5582;59.272;15.220;2022-07-19T00:06:26;11.10;;;6.23;;
11058;SDS011;5582;59.272;15.220;2022-07-19T00:08:51;10.23;;;5.30;;
11058;SDS011;5582;59.272;15.220;2022-07-19T00:11:17;10.27;;;6.13;;
11058;SDS011;5582;59.272;15.220;2022-07-19T00:13:43;9.67;;;6.33;;
11058;SDS011;5582;59.272;15.220;2022-07-19T00:16:09;8.23;;;5.37;;
11058;SDS011;5582;59.272;15.220;2022-07-19T00:18:34;10.97;;;5.87;;
11058;SDS011;5582;59.272;15.220;2022-07-19T00:21:00;9.37;;;5.80;;
11058;SDS011;5582;59.272;15.220;2022-07-19T00:23:26;11.43;;;5.93;;
11058;SDS011;5582;59.272;15.220;2022-07-19T00:25:52;10.17;;;5.80;;
11058;SDS011;5582;59.272;15.220;2022-07-19T00:28:17;13.27;;;6.20;;
11058;SDS011;5582;59.272;15.220;2022-07-19T00:30:43;10.80;;;6.10;;
11058;SDS011;5582;59.272;15.220;2022-07-19T00:33:09;14.27;;;6.80;;
11058;SDS011;5582;59.272;15.220;2022-07-19T00:35:35;12.43;;;6.47;;
11058;SDS011;5582;59.272;15.220;2022-07-19T00:38:09;12.43;;;6.20;;
11058;SDS011;5582;59.272;15.220;2022-07-19T00:40:37;14.10;;;6.30;;
11058;SDS011;5582;59.272;15.220;2022-07-19T00:43:04;12.13;;;6.87;;
11058;SDS011;5582;59.272;15.220;2022-07-19T00:45:29;8.93;;;5.80;;
11058;SDS011;5582;59.272;15.220;2022-07-19T00:47:55;13.87;;;6.80;;
11058;SDS011;5582;59.272;15.220;2022-07-19T00:50:21;11.90;;;6.07;;
11058;SDS011;5582;59.272;15.220;2022-07-19T00:52:52;13.53;;;6.83;;
11058;SDS011;5582;59.272;15.220;2022-07-19T00:55:19;13.03;;;6.13;;
11058;SDS011;5582;59.272;15.220;2022-07-19T00:57:46;11.20;;;6.30;;
11058;SDS011;5582;59.272;15.220;2022-07-19T01:00:13;11.03;;;5.93;;
11058;SDS011;5582;59.272;15.220;2022-07-19T01:02:40;9.43;;;5.90;;
11058;SDS011;5582;59.272;15.220;2022-07-19T01:05:07;13.17;;;6.57;;
11058;SDS011;5582;59.272;15.220;2022-07-19T01:07:33;11.77;;;6.20;;
11058;SDS011;5582;59.272;15.220;2022-07-19T01:10:00;10.50;;;6.10;;
11058;SDS011;5582;59.272;15.220;2022-07-19T01:12:27;11.00;;;6.50;;
11058;SDS011;5582;59.272;15.220;2022-07-19T01:14:55;8.73;;;6.37;;
11058;SDS011;5582;59.272;15.220;2022-07-19T01:17:21;10.87;;;5.87;;
11058;SDS011;5582;59.272;15.220;2022-07-19T01:19:47;14.83;;;7.07;;
11058;SDS011;5582;59.272;15.220;2022-07-19T01:22:13;9.77;;;6.60;;
11058;SDS011;5582;59.272;15.220;2022-07-19T01:24:39;13.13;;;6.80;;
11058;SDS011;5582;59.272;15.220;2022-07-19T01:27:05;11.77;;;6.10;;
11058;SDS011;5582;59.272;15.220;2022-07-19T01:29:31;12.37;;;6.77;;
11058;SDS011;5582;59.272;15.220;2022-07-19T01:31:57;13.07;;;6.80;;
11058;SDS011;5582;59.272;15.220;2022-07-19T01:34:22;14.87;;;7.37;;
11058;SDS011;5582;59.272;15.220;2022-07-19T01:36:48;13.33;;;6.77;;
11058;SDS011;5582;59.272;15.220;2022-07-19T01:39:14;10.97;;;6.87;;
11058;SDS011;5582;59.272;15.220;2022-07-19T01:41:40;9.93;;;6.23;;
11058;SDS011;5582;59.272;15.220;2022-07-19T01:44:06;10.80;;;6.43;;
11058;SDS011;5582;59.272;15.220;2022-07-19T01:46:32;11.70;;;7.20;;
11058;SDS011;5582;59.272;15.220;2022-07-19T01:48:57;13.30;;;7.37;;
11058;SDS011;5582;59.272;15.220;2022-07-19T01:51:23;14.77;;;6.83;;
11058;SDS011;5582;59.272;15.220;2022-07-19T01:53:49;14.87;;;7.27;;
11058;SDS011;5582;59.272;15.220;2022-07-19T01:56:14;13.33;;;7.90;;
11058;SDS011;5582;59.272;15.220;2022-07-19T01:58:40;14.30;;;7.13;;
11058;SDS011;5582;59.272;15.220;2022-07-19T02:01:05;14.63;;;7.00;;
11058;SDS011;5582;59.272;15.220;2022-07-19T02:03:31;12.80;;;6.97;;
11058;SDS011;5582;59.272;15.220;2022-07-19T02:05:57;13.90;;;7.57;;
11058;SDS011;5582;59.272;15.220;2022-07-19T02:08:22;9.77;;;7.07;;
11058;SDS011;5582;59.272;15.220;2022-07-19T02:10:49;13.07;;;6.70;;
11058;SDS011;5582;59.272;15.220;2022-07-19T02:13:15;13.63;;;7.20;;
11058;SDS011;5582;59.272;15.220;2022-07-19T02:15:41;12.97;;;7.13;;
11058;SDS011;5582;59.272;15.220;2022-07-19T02:18:07;13.93;;;7.27;;
11058;SDS011;5582;59.272;15.220;2022-07-19T02:20:32;10.77;;;6.53;;
11058;SDS011;5582;59.272;15.220;2022-07-19T02:22:58;14.87;;;6.83;;
11058;SDS011;5582;59.272;15.220;2022-07-19T02:25:23;11.17;;;6.90;;
11058;SDS011;5582;59.272;15.220;2022-07-19T02:27:49;12.03;;;6.80;;
11058;SDS011;5582;59.272;15.220;2022-07-19T02:30:15;10.07;;;6.70;;
11058;SDS011;5582;59.272;15.220;2022-07-19T02:32:42;7.80;;;6.40;;
11058;SDS011;5582;59.272;15.220;2022-07-19T02:35:08;13.53;;;6.47;;
11058;SDS011;5582;59.272;15.220;2022-07-19T02:37:36;12.30;;;7.27;;
11058;SDS011;5582;59.272;15.220;2022-07-19T02:40:03;13.27;;;6.87;;
11058;SDS011;5582;59.272;15.220;2022-07-19T02:42:29;9.83;;;6.20;;
11058;SDS011;5582;59.272;15.220;2022-07-19T02:44:55;13.60;;;6.63;;
11058;SDS011;5582;59.272;15.220;2022-07-19T02:47:20;12.53;;;6.70;;
11058;SDS011;5582;59.272;15.220;2022-07-19T02:49:46;12.93;;;6.63;;
11058;SDS011;5582;59.272;15.220;2022-07-19T02:52:12;13.17;;;6.40;;
11058;SDS011;5582;59.272;15.220;2022-07-19T02:54:37;9.40;;;6.47;;
11058;SDS011;5582;59.272;15.220;2022-07-19T02:57:03;10.13;;;6.00;;
11058;SDS011;5582;59.272;15.220;2022-07-19T02:59:29;10.87;;;6.03;;
11058;SDS011;5582;59.272;15.220;2022-07-19T03:01:55;11.40;;;6.17;;
11058;SDS011;5582;59.272;15.220;2022-07-19T03:04:21;15.27;;;6.27;;
11058;SDS011;5582;59.272;15.220;2022-07-19T03:06:47;13.57;;;6.70;;
11058;SDS011;5582;59.272;15.220;2022-07-19T03:09:12;11.93;;;6.13;;
11058;SDS011;5582;59.272;15.220;2022-07-19T03:11:38;12.37;;;7.00;;
11058;SDS011;5582;59.272;15.220;2022-07-19T03:14:04;11.93;;;6.57;;
11058;SDS011;5582;59.272;15.220;2022-07-19T03:16:30;9.90;;;6.37;;
11058;SDS011;5582;59.272;15.220;2022-07-19T03:18:55;9.73;;;6.37;;
11058;SDS011;5582;59.272;15.220;2022-07-19T03:21:21;12.07;;;6.93;;
11058;SDS011;5582;59.272;15.220;2022-07-19T03:23:47;13.67;;;6.83;;
11058;SDS011;5582;59.272;15.220;2022-07-19T03:26:12;10.20;;;5.93;;
11058;SDS011;5582;59.272;15.220;2022-07-19T03:28:38;11.57;;;6.10;;
11058;SDS011;5582;59.272;15.220;2022-07-19T03:31:04;11.33;;;6.10;;
11058;SDS011;5582;59.272;15.220;2022-07-19T03:33:29;9.30;;;5.97;;
11058;SDS011;5582;59.272;15.220;2022-07-19T03:35:55;12.90;;;6.77;;
11058;SDS011;5582;59.272;15.220;2022-07-19T03:38:21;16.03;;;6.70;;
11058;SDS011;5582;59.272;15.220;2022-07-19T03:40:47;12.17;;;6.47;;
11058;SDS011;5582;59.272;15.220;2022-07-19T03:43:13;11.77;;;6.23;;
11058;SDS011;5582;59.272;15.220;2022-07-19T03:45:41;14.27;;;6.30;;
11058;SDS011;5582;59.272;15.220;2022-07-19T03:48:07;14.30;;;6.50;;
11058;SDS011;5582;59.272;15.220;2022-07-19T03:50:33;14.50;;;7.03;;
11058;SDS011;5582;59.272;15.220;2022-07-19T03:52:58;11.33;;;6.20;;
11058;SDS011;5582;59.272;15.220;2022-07-19T03:55:24;12.80;;;6.50;;
11058;SDS011;5582;59.272;15.220;2022-07-19T03:57:50;9.23;;;5.83;;
11058;SDS011;5582;59.272;15.220;2022-07-19T04:00:15;14.20;;;7.17;;
11058;SDS011;5582;59.272;15.220;2022-07-19T04:02:41;15.43;;;6.90;;
11058;SDS011;5582;59.272;15.220;2022-07-19T04:05:07;13.37;;;6.83;;
11058;SDS011;5582;59.272;15.220;2022-07-19T04:07:33;12.43;;;5.90;;
11058;SDS011;5582;59.272;15.220;2022-07-19T04:09:59;15.20;;;6.67;;
11058;SDS011;5582;59.272;15.220;2022-07-19T04:12:25;13.10;;;6.53;;
11058;SDS011;5582;59.272;15.220;2022-07-19T04:14:51;10.93;;;6.40;;
11058;SDS011;5582;59.272;15.220;2022-07-19T04:17:16;13.43;;;6.33;;
11058;SDS011;5582;59.272;15.220;2022-07-19T04:19:42;11.90;;;5.77;;
11058;SDS011;5582;59.272;15.220;2022-07-19T04:22:08;13.07;;;6.00;;
11058;SDS011;5582;59.272;15.220;2022-07-19T04:24:33;15.90;;;5.97;;
11058;SDS011;5582;59.272;15.220;2022-07-19T04:26:59;11.87;;;6.17;;
11058;SDS011;5582;59.272;15.220;2022-07-19T04:29:25;13.53;;;6.43;;
11058;SDS011;5582;59.272;15.220;2022-07-19T04:31:50;11.03;;;5.67;;
11058;SDS011;5582;59.272;15.220;2022-07-19T04:34:16;12.33;;;6.03;;
11058;SDS011;5582;59.272;15.220;2022-07-19T04:36:42;13.07;;;6.03;;
11058;SDS011;5582;59.272;15.220;2022-07-19T04:39:08;12.47;;;5.83;;
11058;SDS011;5582;59.272;15.220;2022-07-19T04:41:33;13.20;;;6.83;;
11058;SDS011;5582;59.272;15.220;2022-07-19T04:43:59;13.57;;;6.20;;
11058;SDS011;5582;59.272;15.220;2022-07-19T04:46:25;13.63;;;6.47;;
11058;SDS011;5582;59.272;15.220;2022-07-19T04:48:50;10.67;;;6.10;;
11058;SDS011;5582;59.272;15.220;2022-07-19T04:51:16;13.97;;;6.53;;
11058;SDS011;5582;59.272;15.220;2022-07-19T04:53:41;16.60;;;6.20;;
11058;SDS011;5582;59.272;15.220;2022-07-19T04:56:07;10.07;;;5.77;;
11058;SDS011;5582;59.272;15.220;2022-07-19T04:58:33;12.63;;;6.37;;
11058;SDS011;5582;59.272;15.220;2022-07-19T05:00:59;12.70;;;5.63;;
11058;SDS011;5582;59.272;15.220;2022-07-19T05:03:24;15.03;;;6.43;;
11058;SDS011;5582;59.272;15.220;2022-07-19T05:05:50;11.33;;;6.20;;
11058;SDS011;5582;59.272;15.220;2022-07-19T05:08:15;12.60;;;6.53;;
11058;SDS011;5582;59.272;15.220;2022-07-19T05:10:42;11.57;;;6.17;;
11058;SDS011;5582;59.272;15.220;2022-07-19T05:13:08;14.00;;;6.23;;
11058;SDS011;5582;59.272;15.220;2022-07-19T05:15:34;11.70;;;6.00;;
11058;SDS011;5582;59.272;15.220;2022-07-19T05:18:00;13.27;;;6.27;;
11058;SDS011;5582;59.272;15.220;2022-07-19T05:20:25;12.47;;;6.13;;
11058;SDS011;5582;59.272;15.220;2022-07-19T05:22:51;14.77;;;7.00;;
11058;SDS011;5582;59.272;15.220;2022-07-19T05:25:17;10.80;;;6.17;;
11058;SDS011;5582;59.272;15.220;2022-07-19T05:27:43;11.00;;;6.10;;
11058;SDS011;5582;59.272;15.220;2022-07-19T05:30:09;12.47;;;6.07;;
11058;SDS011;5582;59.272;15.220;2022-07-19T05:32:35;11.00;;;6.07;;
11058;SDS011;5582;59.272;15.220;2022-07-19T05:35:00;9.77;;;5.33;;
11058;SDS011;5582;59.272;15.220;2022-07-19T05:37:26;11.90;;;5.53;;
11058;SDS011;5582;59.272;15.220;2022-07-19T05:39:52;8.20;;;5.03;;
11058;SDS011;5582;59.272;15.220;2022-07-19T05:42:17;9.73;;;5.60;;
11058;SDS011;5582;59.272;15.220;2022-07-19T05:44:43;10.00;;;5.97;;
11058;SDS011;5582;59.272;15.220;2022-07-19T05:47:09;9.03;;;5.87;;
11058;SDS011;5582;59.272;15.220;2022-07-19T05:49:34;11.53;;;6.03;;
11058;SDS011;5582;59.272;15.220;2022-07-19T05:52:00;9.60;;;5.33;;
11058;SDS011;5582;59.272;15.220;2022-07-19T05:54:26;10.17;;;5.10;;
11058;SDS011;5582;59.272;15.220;2022-07-19T05:56:51;9.77;;;4.87;;
11058;SDS011;5582;59.272;15.220;2022-07-19T05:59:18;8.50;;;5.40;;
11058;SDS011;5582;59.272;15.220;2022-07-19T06:01:46;8.23;;;5.13;;
11058;SDS011;5582;59.272;15.220;2022-07-19T06:04:12;12.37;;;5.53;;
11058;SDS011;5582;59.272;15.220;2022-07-19T06:06:38;7.77;;;5.10;;
11058;SDS011;5582;59.272;15.220;2022-07-19T06:09:04;10.10;;;4.80;;
11058;SDS011;5582;59.272;15.220;2022-07-19T06:11:30;8.70;;;4.87;;
11058;SDS011;5582;59.272;15.220;2022-07-19T06:13:56;9.27;;;5.00;;
11058;SDS011;5582;59.272;15.220;2022-07-19T06:16:22;10.60;;;5.43;;
11058;SDS011;5582;59.272;15.220;2022-07-19T06:18:48;11.13;;;5.20;;
11058;SDS011;5582;59.272;15.220;2022-07-19T06:21:15;7.97;;;4.93;;
11058;SDS011;5582;59.272;15.220;2022-07-19T06:23:43;8.83;;;5.30;;
11058;SDS011;5582;59.272;15.220;2022-07-19T06:26:10;10.53;;;5.17;;
11058;SDS011;5582;59.272;15.220;2022-07-19T06:28:37;11.67;;;5.57;;
11058;SDS011;5582;59.272;15.220;2022-07-19T06:31:03;7.40;;;4.50;;
11058;SDS011;5582;59.272;15.220;2022-07-19T06:33:31;7.27;;;4.97;;
11058;SDS011;5582;59.272;15.220;2022-07-19T06:35:57;11.93;;;5.00;;
11058;SDS011;5582;59.272;15.220;2022-07-19T06:38:22;8.93;;;4.30;;
11058;SDS011;5582;59.272;15.220;2022-07-19T06:40:48;8.30;;;3.60;;
11058;SDS011;5582;59.272;15.220;2022-07-19T06:43:14;5.10;;;3.93;;
11058;SDS011;5582;59.272;15.220;2022-07-19T06:45:39;5.83;;;3.70;;
11058;SDS011;5582;59.272;15.220;2022-07-19T06:48:05;8.10;;;4.93;;
11058;SDS011;5582;59.272;15.220;2022-07-19T06:50:32;5.37;;;3.47;;
11058;SDS011;5582;59.272;15.220;2022-07-19T06:52:58;5.33;;;3.90;;
11058;SDS011;5582;59.272;15.220;2022-07-19T06:55:23;4.97;;;3.70;;
11058;SDS011;5582;59.272;15.220;2022-07-19T06:57:49;6.17;;;3.87;;
11058;SDS011;5582;59.272;15.220;2022-07-19T07:00:15;4.97;;;3.60;;
11058;SDS011;5582;59.272;15.220;2022-07-19T07:02:41;5.03;;;3.47;;
11058;SDS011;5582;59.272;15.220;2022-07-19T07:05:08;6.60;;;3.90;;
11058;SDS011;5582;59.272;15.220;2022-07-19T07:07:35;6.00;;;3.80;;
11058;SDS011;5582;59.272;15.220;2022-07-19T07:10:02;8.33;;;4.07;;
11058;SDS011;5582;59.272;15.220;2022-07-19T07:12:31;5.30;;;3.87;;
11058;SDS011;5582;59.272;15.220;2022-07-19T07:14:57;5.80;;;3.80;;
11058;SDS011;5582;59.272;15.220;2022-07-19T07:17:23;6.97;;;3.60;;
11058;SDS011;5582;59.272;15.220;2022-07-19T07:19:49;6.23;;;3.63;;
11058;SDS011;5582;59.272;15.220;2022-07-19T07:22:14;5.67;;;3.57;;
11058;SDS011;5582;59.272;15.220;2022-07-19T07:24:40;9.13;;;4.23;;
11058;SDS011;5582;59.272;15.220;2022-07-19T07:27:06;6.70;;;3.67;;
11058;SDS011;5582;59.272;15.220;2022-07-19T07:29:31;7.10;;;4.50;;
11058;SDS011;5582;59.272;15.220;2022-07-19T07:31:57;7.50;;;3.40;;
11058;SDS011;5582;59.272;15.220;2022-07-19T07:34:22;8.33;;;4.30;;
11058;SDS011;5582;59.272;15.220;2022-07-19T07:36:48;6.97;;;3.80;;
11058;SDS011;5582;59.272;15.220;2022-07-19T07:39:14;6.33;;;3.87;;
11058;SDS011;5582;59.272;15.220;2022-07-19T07:41:40;7.43;;;3.50;;
11058;SDS011;5582;59.272;15.220;2022-07-19T07:44:05;5.53;;;3.73;;
11058;SDS011;5582;59.272;15.220;2022-07-19T07:46:31;6.77;;;3.60;;
11058;SDS011;5582;59.272;15.220;2022-07-19T07:48:57;6.60;;;3.90;;
11058;SDS011;5582;59.272;15.220;2022-07-19T07:51:23;7.13;;;3.77;;
11058;SDS011;5582;59.272;15.220;2022-07-19T07:53:48;6.07;;;3.37;;
11058;SDS011;5582;59.272;15.220;2022-07-19T07:56:14;5.50;;;3.50;;
11058;SDS011;5582;59.272;15.220;2022-07-19T07:58:40;7.43;;;3.87;;
11058;SDS011;5582;59.272;15.220;2022-07-19T08:01:06;14.53;;;4.70;;
11058;SDS011;5582;59.272;15.220;2022-07-19T08:03:31;6.43;;;3.80;;
11058;SDS011;5582;59.272;15.220;2022-07-19T08:05:57;5.50;;;3.57;;
11058;SDS011;5582;59.272;15.220;2022-07-19T08:08:24;8.13;;;3.93;;
11058;SDS011;5582;59.272;15.220;2022-07-19T08:10:52;4.93;;;3.83;;
11058;SDS011;5582;59.272;15.220;2022-07-19T08:13:20;6.60;;;3.83;;
11058;SDS011;5582;59.272;15.220;2022-07-19T08:15:46;6.43;;;4.00;;
11058;SDS011;5582;59.272;15.220;2022-07-19T08:18:12;5.50;;;4.47;;
11058;SDS011;5582;59.272;15.220;2022-07-19T08:20:38;6.50;;;4.20;;
11058;SDS011;5582;59.272;15.220;2022-07-19T08:23:03;6.13;;;4.30;;
11058;SDS011;5582;59.272;15.220;2022-07-19T08:25:29;6.27;;;4.10;;
11058;SDS011;5582;59.272;15.220;2022-07-19T08:27:55;5.60;;;4.10;;
11058;SDS011;5582;59.272;15.220;2022-07-19T08:30:20;7.20;;;4.47;;
11058;SDS011;5582;59.272;15.220;2022-07-19T08:32:46;5.40;;;3.73;;
11058;SDS011;5582;59.272;15.220;2022-07-19T08:35:12;7.43;;;4.10;;
11058;SDS011;5582;59.272;15.220;2022-07-19T08:37:38;6.33;;;4.37;;
11058;SDS011;5582;59.272;15.220;2022-07-19T08:40:04;9.63;;;4.07;;
11058;SDS011;5582;59.272;15.220;2022-07-19T08:42:31;4.43;;;3.53;;
11058;SDS011;5582;59.272;15.220;2022-07-19T08:44:59;5.83;;;3.77;;
11058;SDS011;5582;59.272;15.220;2022-07-19T08:47:26;8.40;;;4.27;;
11058;SDS011;5582;59.272;15.220;2022-07-19T08:49:54;4.63;;;3.10;;
11058;SDS011;5582;59.272;15.220;2022-07-19T08:52:19;5.77;;;3.57;;
11058;SDS011;5582;59.272;15.220;2022-07-19T08:54:46;5.63;;;3.60;;
11058;SDS011;5582;59.272;15.220;2022-07-19T08:57:12;6.70;;;3.47;;
11058;SDS011;5582;59.272;15.220;2022-07-19T08:59:57;4.40;;;2.70;;
11058;SDS011;5582;59.272;15.220;2022-07-19T09:02:22;5.07;;;3.80;;
11058;SDS011;5582;59.272;15.220;2022-07-19T09:07:33;4.67;;;3.90;;
11058;SDS011;5582;59.272;15.220;2022-07-19T09:10:15;6.70;;;3.90;;
11058;SDS011;5582;59.272;15.220;2022-07-19T09:20:56;4.17;;;3.70;;
11058;SDS011;5582;59.272;15.220;2022-07-19T09:23:30;5.10;;;3.30;;
11058;SDS011;5582;59.272;15.220;2022-07-19T09:25:57;5.07;;;3.30;;
11058;SDS011;5582;59.272;15.220;2022-07-19T09:28:28;6.17;;;3.80;;
11058;SDS011;5582;59.272;15.220;2022-07-19T09:30:57;6.60;;;3.50;;
11058;SDS011;5582;59.272;15.220;2022-07-19T09:33:24;6.73;;;3.40;;
11058;SDS011;5582;59.272;15.220;2022-07-19T09:35:57;7.93;;;3.93;;
11058;SDS011;5582;59.272;15.220;2022-07-19T09:38:30;5.10;;;3.93;;
11058;SDS011;5582;59.272;15.220;2022-07-19T09:46:31;6.87;;;3.40;;
11058;SDS011;5582;59.272;15.220;2022-07-19T09:49:02;6.73;;;3.70;;
11058;SDS011;5582;59.272;15.220;2022-07-19T09:51:35;5.57;;;3.13;;
11058;SDS011;5582;59.272;15.220;2022-07-19T09:54:02;5.67;;;2.97;;
11058;SDS011;5582;59.272;15.220;2022-07-19T09:56:29;4.63;;;2.90;;
11058;SDS011;5582;59.272;15.220;2022-07-19T09:58:56;3.80;;;3.40;;
11058;SDS011;5582;59.272;15.220;2022-07-19T10:01:23;5.23;;;3.57;;
11058;SDS011;5582;59.272;15.220;2022-07-19T10:03:50;4.90;;;3.83;;
11058;SDS011;5582;59.272;15.220;2022-07-19T10:06:19;7.13;;;3.60;;
11058;SDS011;5582;59.272;15.220;2022-07-19T10:08:45;6.17;;;4.10;;
11058;SDS011;5582;59.272;15.220;2022-07-19T10:11:11;4.53;;;3.50;;
11058;SDS011;5582;59.272;15.220;2022-07-19T10:13:37;5.90;;;3.63;;
11058;SDS011;5582;59.272;15.220;2022-07-19T10:16:05;4.90;;;3.47;;
11058;SDS011;5582;59.272;15.220;2022-07-19T10:18:37;4.27;;;3.27;;
11058;SDS011;5582;59.272;15.220;2022-07-19T10:21:11;5.47;;;3.77;;
11058;SDS011;5582;59.272;15.220;2022-07-19T10:23:37;3.73;;;3.30;;
11058;SDS011;5582;59.272;15.220;2022-07-19T10:26:02;4.20;;;3.23;;
11058;SDS011;5582;59.272;15.220;2022-07-19T10:28:29;4.37;;;3.30;;
11058;SDS011;5582;59.272;15.220;2022-07-19T10:30:58;6.70;;;3.97;;
11058;SDS011;5582;59.272;15.220;2022-07-19T10:35:52;3.90;;;3.57;;
11058;SDS011;5582;59.272;15.220;2022-07-19T10:38:18;6.43;;;3.23;;
11058;SDS011;5582;59.272;15.220;2022-07-19T10:40:45;5.00;;;3.27;;
11058;SDS011;5582;59.272;15.220;2022-07-19T10:45:37;4.33;;;3.10;;
11058;SDS011;5582;59.272;15.220;2022-07-19T10:48:10;4.03;;;2.80;;
11058;SDS011;5582;59.272;15.220;2022-07-19T10:53:10;3.57;;;3.17;;
11058;SDS011;5582;59.272;15.220;2022-07-19T10:55:36;3.60;;;3.10;;
11058;SDS011;5582;59.272;15.220;2022-07-19T11:00:31;5.57;;;2.83;;
11058;SDS011;5582;59.272;15.220;2022-07-19T11:05:53;3.30;;;3.00;;
11058;SDS011;5582;59.272;15.220;2022-07-19T11:08:31;3.10;;;2.80;;
11058;SDS011;5582;59.272;15.220;2022-07-19T11:11:17;3.20;;;2.90;;
11058;SDS011;5582;59.272;15.220;2022-07-19T11:13:45;9.10;;;3.00;;
11058;SDS011;5582;59.272;15.220;2022-07-19T11:16:12;3.90;;;3.20;;
11058;SDS011;5582;59.272;15.220;2022-07-19T11:18:39;3.43;;;2.90;;
11058;SDS011;5582;59.272;15.220;2022-07-19T11:21:05;4.33;;;2.93;;
11058;SDS011;5582;59.272;15.220;2022-07-19T11:23:35;2.97;;;2.67;;
11058;SDS011;5582;59.272;15.220;2022-07-19T11:26:05;3.47;;;2.90;;
11058;SDS011;5582;59.272;15.220;2022-07-19T11:28:41;4.77;;;2.70;;
11058;SDS011;5582;59.272;15.220;2022-07-19T11:31:15;3.40;;;2.60;;
11058;SDS011;5582;59.272;15.220;2022-07-19T11:33:43;3.37;;;3.07;;
11058;SDS011;5582;59.272;15.220;2022-07-19T11:36:09;5.33;;;2.80;;
11058;SDS011;5582;59.272;15.220;2022-07-19T11:38:37;4.93;;;2.70;;
11058;SDS011;5582;59.272;15.220;2022-07-19T11:41:14;3.40;;;2.70;;
11058;SDS011;5582;59.272;15.220;2022-07-19T11:43:42;5.07;;;3.10;;
11058;SDS011;5582;59.272;15.220;2022-07-19T11:46:08;3.20;;;2.90;;
11058;SDS011;5582;59.272;15.220;2022-07-19T11:48:34;4.10;;;2.77;;
11058;SDS011;5582;59.272;15.220;2022-07-19T11:51:01;6.13;;;2.60;;
11058;SDS011;5582;59.272;15.220;2022-07-19T11:53:27;5.00;;;2.93;;
11058;SDS011;5582;59.272;15.220;2022-07-19T11:55:53;5.03;;;3.00;;
11058;SDS011;5582;59.272;15.220;2022-07-19T11:58:18;3.30;;;2.97;;
11058;SDS011;5582;59.272;15.220;2022-07-19T12:00:44;3.73;;;2.97;;
11058;SDS011;5582;59.272;15.220;2022-07-19T12:03:13;3.97;;;2.53;;
11058;SDS011;5582;59.272;15.220;2022-07-19T12:05:52;6.87;;;2.90;;
11058;SDS011;5582;59.272;15.220;2022-07-19T12:08:20;3.80;;;2.70;;
11058;SDS011;5582;59.272;15.220;2022-07-19T12:10:46;4.30;;;2.90;;
11058;SDS011;5582;59.272;15.220;2022-07-19T12:13:36;3.80;;;3.03;;
11058;SDS011;5582;59.272;15.220;2022-07-19T12:16:11;4.90;;;3.17;;
11058;SDS011;5582;59.272;15.220;2022-07-19T12:24:24;3.33;;;2.93;;
11058;SDS011;5582;59.272;15.220;2022-07-19T12:29:21;4.10;;;2.53;;
11058;SDS011;5582;59.272;15.220;2022-07-19T12:31:54;3.77;;;2.47;;
11058;SDS011;5582;59.272;15.220;2022-07-19T12:34:21;2.87;;;2.53;;
11058;SDS011;5582;59.272;15.220;2022-07-19T12:36:47;5.70;;;2.80;;
11058;SDS011;5582;59.272;15.220;2022-07-19T12:39:17;4.40;;;2.70;;
11058;SDS011;5582;59.272;15.220;2022-07-19T12:42:19;6.80;;;2.55;;
11058;SDS011;5582;59.272;15.220;2022-07-19T12:44:41;2.85;;;2.40;;
11058;SDS011;5582;59.272;15.220;2022-07-19T12:47:07;3.25;;;2.95;;
11058;SDS011;5582;59.272;15.220;2022-07-19T12:49:45;2.72;;;2.22;;
11058;SDS011;5582;59.272;15.220;2022-07-19T12:52:13;2.63;;;2.30;;
11058;SDS011;5582;59.272;15.220;2022-07-19T12:54:39;3.58;;;2.42;;
11058;SDS011;5582;59.272;15.220;2022-07-19T12:57:04;4.47;;;2.80;;
11058;SDS011;5582;59.272;15.220;2022-07-19T12:59:30;5.57;;;2.67;;
11058;SDS011;5582;59.272;15.220;2022-07-19T13:02:07;2.58;;;2.38;;
11058;SDS011;5582;59.272;15.220;2022-07-19T13:04:38;3.35;;;2.50;;
11058;SDS011;5582;59.272;15.220;2022-07-19T13:07:05;3.00;;;2.58;;
11058;SDS011;5582;59.272;15.220;2022-07-19T13:09:32;3.35;;;2.65;;
11058;SDS011;5582;59.272;15.220;2022-07-19T13:11:59;7.85;;;2.90;;
11058;SDS011;5582;59.272;15.220;2022-07-19T13:14:26;4.03;;;2.53;;
11058;SDS011;5582;59.272;15.220;2022-07-19T13:16:52;2.65;;;2.35;;
11058;SDS011;5582;59.272;15.220;2022-07-19T13:19:17;6.03;;;2.50;;
11058;SDS011;5582;59.272;15.220;2022-07-19T13:21:43;5.20;;;2.13;;
11058;SDS011;5582;59.272;15.220;2022-07-19T13:24:09;7.55;;;2.30;;
11058;SDS011;5582;59.272;15.220;2022-07-19T13:26:35;2.88;;;2.28;;
11058;SDS011;5582;59.272;15.220;2022-07-19T13:29:01;2.30;;;2.00;;
11058;SDS011;5582;59.272;15.220;2022-07-19T13:31:27;4.88;;;2.25;;
11058;SDS011;5582;59.272;15.220;2022-07-19T13:33:52;5.88;;;2.40;;
11058;SDS011;5582;59.272;15.220;2022-07-19T13:36:18;3.47;;;2.20;;
11058;SDS011;5582;59.272;15.220;2022-07-19T13:38:43;2.20;;;2.00;;
11058;SDS011;5582;59.272;15.220;2022-07-19T13:41:09;2.97;;;2.60;;
11058;SDS011;5582;59.272;15.220;2022-07-19T13:43:35;2.33;;;1.88;;
11058;SDS011;5582;59.272;15.220;2022-07-19T13:46:01;2.90;;;2.15;;
11058;SDS011;5582;59.272;15.220;2022-07-19T13:48:26;1.77;;;1.67;;
11058;SDS011;5582;59.272;15.220;2022-07-19T13:50:52;2.17;;;1.80;;
11058;SDS011;5582;59.272;15.220;2022-07-19T13:53:18;3.92;;;1.90;;
11058;SDS011;5582;59.272;15.220;2022-07-19T13:55:43;2.78;;;2.05;;
11058;SDS011;5582;59.272;15.220;2022-07-19T13:58:09;2.22;;;2.08;;
11058;SDS011;5582;59.272;15.220;2022-07-19T14:00:35;3.60;;;1.98;;
11058;SDS011;5582;59.272;15.220;2022-07-19T14:03:00;3.35;;;1.75;;
11058;SDS011;5582;59.272;15.220;2022-07-19T14:05:26;2.90;;;2.00;;
11058;SDS011;5582;59.272;15.220;2022-07-19T14:07:51;2.83;;;2.00;;
11058;SDS011;5582;59.272;15.220;2022-07-19T14:10:17;2.17;;;1.98;;
11058;SDS011;5582;59.272;15.220;2022-07-19T14:12:44;3.30;;;2.38;;
11058;SDS011;5582;59.272;15.220;2022-07-19T14:15:09;2.45;;;1.83;;
11058;SDS011;5582;59.272;15.220;2022-07-19T14:17:35;3.08;;;1.95;;
11058;SDS011;5582;59.272;15.220;2022-07-19T14:20:02;3.58;;;1.90;;
11058;SDS011;5582;59.272;15.220;2022-07-19T14:22:30;2.88;;;2.17;;
11058;SDS011;5582;59.272;15.220;2022-07-19T14:24:56;1.90;;;1.77;;
11058;SDS011;5582;59.272;15.220;2022-07-19T14:27:22;2.10;;;1.90;;
11058;SDS011;5582;59.272;15.220;2022-07-19T14:29:48;2.00;;;1.70;;
11058;SDS011;5582;59.272;15.220;2022-07-19T14:32:13;4.18;;;2.03;;
11058;SDS011;5582;59.272;15.220;2022-07-19T14:34:39;3.17;;;2.05;;
11058;SDS011;5582;59.272;15.220;2022-07-19T14:37:05;6.30;;;2.10;;
11058;SDS011;5582;59.272;15.220;2022-07-19T14:39:31;2.63;;;2.10;;
11058;SDS011;5582;59.272;15.220;2022-07-19T14:41:57;4.60;;;2.40;;
11058;SDS011;5582;59.272;15.220;2022-07-19T14:44:25;3.55;;;1.90;;
11058;SDS011;5582;59.272;15.220;2022-07-19T14:46:51;1.90;;;1.80;;
11058;SDS011;5582;59.272;15.220;2022-07-19T14:49:18;3.40;;;2.33;;
11058;SDS011;5582;59.272;15.220;2022-07-19T14:51:43;2.67;;;2.17;;
11058;SDS011;5582;59.272;15.220;2022-07-19T14:54:09;2.60;;;2.38;;
11058;SDS011;5582;59.272;15.220;2022-07-19T14:56:35;3.13;;;2.25;;
11058;SDS011;5582;59.272;15.220;2022-07-19T14:59:00;4.57;;;2.20;;
11058;SDS011;5582;59.272;15.220;2022-07-19T15:01:26;2.83;;;2.08;;
11058;SDS011;5582;59.272;15.220;2022-07-19T15:03:52;2.75;;;2.10;;
11058;SDS011;5582;59.272;15.220;2022-07-19T15:06:17;5.10;;;2.13;;
11058;SDS011;5582;59.272;15.220;2022-07-19T15:08:43;4.43;;;1.90;;
11058;SDS011;5582;59.272;15.220;2022-07-19T15:11:08;4.43;;;1.98;;
11058;SDS011;5582;59.272;15.220;2022-07-19T15:13:34;3.05;;;2.33;;
11058;SDS011;5582;59.272;15.220;2022-07-19T15:16:00;2.30;;;2.05;;
11058;SDS011;5582;59.272;15.220;2022-07-19T15:18:26;3.95;;;2.28;;